Time;durP1;ratioP1;P1;durP2;ratioP2;P2;SDS_P1;SDS_P2;PMS_P1;PMS_P2;Temp;Humidity;BMP_temperature;BMP_pressure;BME280_temperature;BME280_humidity;BME280_pressure;Samples;Min_cycle;Max_cycle;Signal;HPM_P1;HPM_P2
2022/10/13 00:00:52;;;;;;;22.88;12.57;;;10.40;99.90;;;;;;5091014;28;20028;-50
2022/10/13 00:03:18;;;;;;;20.15;12.38;;;10.40;99.90;;;;;;5092298;28;20034;-52
2022/10/13 00:05:47;;;;;;;20.80;11.27;;;10.40;99.90;;;;;;5091684;28;20386;-54
2022/10/13 00:08:15;;;;;;;22.33;11.43;;;10.50;99.90;;;;;;5087855;28;20039;-55
2022/10/13 00:10:40;;;;;;;21.58;10.07;;;10.40;99.90;;;;;;5091824;28;20329;-57
2022/10/13 00:13:07;;;;;;;21.13;11.27;;;10.40;99.90;;;;;;5092107;28;20498;-54
2022/10/13 00:15:37;;;;;;;18.48;9.63;;;10.40;99.90;;;;;;5091387;28;20020;-58
2022/10/13 00:18:03;;;;;;;16.92;10.00;;;10.40;99.90;;;;;;5091936;28;20066;-54
2022/10/13 00:20:29;;;;;;;23.42;11.23;;;10.50;99.90;;;;;;5091921;28;20044;-52
2022/10/13 00:22:54;;;;;;;23.65;11.98;;;10.50;99.90;;;;;;5090863;28;20047;-50
2022/10/13 00:25:20;;;;;;;28.58;14.50;;;10.50;99.90;;;;;;5092230;28;20051;-52
2022/10/13 00:27:46;;;;;;;28.33;15.23;;;10.50;99.90;;;;;;5091550;28;20024;-52
2022/10/13 00:30:11;;;;;;;28.73;13.80;;;10.50;99.90;;;;;;5091222;28;20089;-47
2022/10/13 00:32:37;;;;;;;35.13;16.67;;;10.50;99.90;;;;;;5091391;28;20055;-52
2022/10/13 00:35:02;;;;;;;31.98;16.52;;;10.50;99.90;;;;;;5091683;28;20039;-50
2022/10/13 00:37:28;;;;;;;34.88;19.27;;;10.50;99.90;;;;;;5090917;28;20024;-52
2022/10/13 00:39:54;;;;;;;42.20;21.33;;;10.40;99.90;;;;;;5091282;28;20031;-51
2022/10/13 00:42:19;;;;;;;38.45;20.52;;;10.40;99.90;;;;;;5091445;28;20099;-50
2022/10/13 00:44:54;;;;;;;33.92;18.42;;;10.50;99.90;;;;;;5090560;28;20059;-47
2022/10/13 00:47:20;;;;;;;38.33;21.52;;;10.40;99.90;;;;;;5091299;28;20060;-51
2022/10/13 00:49:47;;;;;;;36.28;19.10;;;10.40;99.90;;;;;;5091226;28;20020;-49
2022/10/13 00:52:13;;;;;;;34.92;18.95;;;10.50;99.90;;;;;;5091007;28;20595;-55
2022/10/13 00:54:39;;;;;;;34.70;18.48;;;10.40;99.90;;;;;;5091879;28;20021;-47
2022/10/13 00:57:07;;;;;;;36.30;18.75;;;10.50;99.90;;;;;;5090573;28;20024;-48
2022/10/13 00:59:33;;;;;;;27.77;15.90;;;10.50;99.90;;;;;;5090946;28;20142;-52
2022/10/13 01:02:01;;;;;;;27.52;15.35;;;10.50;99.90;;;;;;5090689;28;20032;-50
2022/10/13 01:04:40;;;;;;;21.30;12.75;;;10.60;99.90;;;;;;5090263;28;20445;-52
2022/10/13 01:07:06;;;;;;;21.02;11.77;;;10.60;99.90;;;;;;5090848;28;20058;-55
2022/10/13 01:09:36;;;;;;;15.68;8.65;;;10.70;99.90;;;;;;5090858;28;20054;-51
2022/10/13 01:12:14;;;;;;;15.18;8.85;;;10.70;99.90;;;;;;5090155;28;20080;-52
2022/10/13 01:15:01;;;;;;;19.38;9.20;;;10.80;99.90;;;;;;5090276;28;20020;-53
2022/10/13 01:17:27;;;;;;;16.95;8.93;;;10.80;99.90;;;;;;5090283;28;20036;-50
2022/10/13 01:19:59;;;;;;;14.55;8.25;;;10.80;99.90;;;;;;5089505;28;20488;-51
2022/10/13 01:22:43;;;;;;;20.55;10.25;;;10.80;99.90;;;;;;5090637;28;20040;-50
2022/10/13 01:25:34;;;;;;;20.02;11.27;;;10.80;99.90;;;;;;5089835;28;20024;-54
2022/10/13 01:28:26;;;;;;;;;;;10.70;99.90;;;;;;5090561;28;20034;-54
2022/10/13 01:31:13;;;;;;;29.17;15.45;;;10.70;99.90;;;;;;5088930;28;19905;-52
2022/10/13 01:33:56;;;;;;;29.40;14.75;;;10.70;99.90;;;;;;5089819;28;20435;-56
2022/10/13 01:36:28;;;;;;;24.75;14.27;;;10.70;99.90;;;;;;5090432;28;20028;-50
2022/10/13 01:39:08;;;;;;;28.10;14.95;;;10.70;99.90;;;;;;5090048;28;20405;-54
2022/10/13 01:41:39;;;;;;;27.75;15.65;;;10.70;99.90;;;;;;5089726;28;20086;-49
2022/10/13 01:44:15;;;;;;;33.45;18.38;;;10.70;99.90;;;;;;5090250;28;20568;-61
2022/10/13 01:46:42;;;;;;;27.85;15.18;;;10.70;99.90;;;;;;5089644;28;20058;-57
2022/10/13 01:49:11;;;;;;;33.15;16.73;;;10.70;99.90;;;;;;5072229;28;20372;-55
2022/10/13 01:51:38;;;;;;;40.13;22.10;;;10.70;99.90;;;;;;5090087;28;20446;-51
2022/10/13 01:54:04;;;;;;;35.35;20.15;;;10.70;99.90;;;;;;5089740;28;20012;-52
2022/10/13 01:56:30;;;;;;;34.55;19.23;;;10.80;99.90;;;;;;5090444;28;20483;-50
2022/10/13 01:58:58;;;;;;;33.63;19.33;;;10.70;99.90;;;;;;5090026;28;20033;-54
2022/10/13 02:01:27;;;;;;;35.30;19.15;;;10.80;99.90;;;;;;5089531;28;20036;-55
2022/10/13 02:04:24;;;;;;;30.80;17.13;;;10.70;99.90;;;;;;5089637;28;20038;-54
2022/10/13 02:07:11;;;;;;;38.65;18.48;;;10.70;99.90;;;;;;5089967;28;20376;-51
2022/10/13 02:09:49;;;;;;;24.00;12.85;;;10.70;99.90;;;;;;5088140;28;20039;-55
2022/10/13 02:12:30;;;;;;;25.45;12.38;;;10.70;99.90;;;;;;5090101;28;20032;-57
2022/10/13 02:14:57;;;;;;;18.48;11.82;;;10.80;99.90;;;;;;5089256;28;20548;-55
2022/10/13 02:17:26;;;;;;;20.40;11.65;;;10.80;99.90;;;;;;5090094;28;20077;-54
2022/10/13 02:19:53;;;;;;;22.67;12.98;;;10.80;99.90;;;;;;5089709;28;20044;-55
2022/10/13 02:22:21;;;;;;;26.73;14.63;;;10.90;99.90;;;;;;5089384;28;20064;-57
2022/10/13 02:24:46;;;;;;;28.30;14.10;;;10.90;99.90;;;;;;5089987;28;20081;-57
2022/10/13 02:27:12;;;;;;;28.83;16.38;;;10.90;99.90;;;;;;5090028;28;20020;-54
2022/10/13 02:29:50;;;;;;;34.63;18.88;;;10.90;99.90;;;;;;5089027;28;20027;-53
2022/10/13 02:32:15;;;;;;;35.35;20.40;;;10.80;99.90;;;;;;5089895;28;20028;-51
2022/10/13 02:34:41;;;;;;;43.85;23.77;;;10.80;99.90;;;;;;5090336;28;20020;-48
2022/10/13 02:37:06;;;;;;;42.55;22.42;;;10.90;99.90;;;;;;5092808;28;20346;-52
2022/10/13 02:39:32;;;;;;;33.97;19.63;;;10.80;99.90;;;;;;5093630;28;20103;-47
2022/10/13 02:41:58;;;;;;;37.35;19.15;;;10.80;99.90;;;;;;5093060;28;20050;-48
2022/10/13 02:44:24;;;;;;;32.70;17.15;;;10.80;99.90;;;;;;5092968;28;20023;-50
2022/10/13 02:46:49;;;;;;;32.95;16.95;;;10.80;99.90;;;;;;5093320;28;20031;-49
2022/10/13 02:49:15;;;;;;;32.75;17.88;;;10.90;99.90;;;;;;5093198;28;20088;-50
2022/10/13 02:51:40;;;;;;;39.95;20.40;;;10.90;99.90;;;;;;5092656;28;20102;-60
2022/10/13 02:54:07;;;;;;;52.00;25.00;;;10.80;99.90;;;;;;5093586;28;20052;-50
2022/10/13 02:56:32;;;;;;;45.10;23.10;;;10.90;99.90;;;;;;5093364;28;20028;-50
2022/10/13 02:58:58;;;;;;;45.03;25.77;;;10.80;99.90;;;;;;5092631;28;20024;-52
2022/10/13 03:01:23;;;;;;;53.38;28.30;;;10.90;99.90;;;;;;5092601;28;20032;-57
2022/10/13 03:03:49;;;;;;;48.80;25.65;;;10.90;99.90;;;;;;5092426;28;20020;-59
2022/10/13 03:06:14;;;;;;;40.25;21.75;;;10.90;99.90;;;;;;5092944;28;20058;-57
2022/10/13 03:08:40;;;;;;;39.45;20.73;;;10.90;99.90;;;;;;5092664;28;20081;-56
2022/10/13 03:11:06;;;;;;;24.27;13.18;;;10.90;99.90;;;;;;5092346;28;20035;-51
2022/10/13 03:13:31;;;;;;;21.52;10.93;;;10.80;99.90;;;;;;5093025;28;20020;-52
2022/10/13 03:15:57;;;;;;;34.67;18.90;;;10.80;99.90;;;;;;5092531;28;20039;-55
2022/10/13 03:18:23;;;;;;;42.70;24.25;;;10.80;99.90;;;;;;5092311;28;20403;-51
2022/10/13 03:21:03;;;;;;;30.73;18.05;;;10.80;99.90;;;;;;5091763;28;20044;-62
2022/10/13 03:23:29;;;;;;;31.60;15.13;;;10.80;99.90;;;;;;5091882;28;20024;-53
2022/10/13 03:25:55;;;;;;;23.33;13.48;;;10.90;99.90;;;;;;5090672;28;20035;-53
2022/10/13 03:28:21;;;;;;;20.90;9.73;;;10.90;99.90;;;;;;5092972;28;20031;-55
2022/10/13 03:30:47;;;;;;;16.98;9.98;;;11.00;99.90;;;;;;5092760;28;20059;-55
2022/10/13 03:33:41;;;;;;;22.77;11.75;;;10.90;99.90;;;;;;5091608;28;20515;-50
2022/10/13 03:36:07;;;;;;;28.65;15.48;;;10.90;99.90;;;;;;5090827;28;20028;-53
2022/10/13 03:38:33;;;;;;;34.25;17.80;;;10.90;99.90;;;;;;5091176;28;20028;-49
2022/10/13 03:41:11;;;;;;;35.63;17.77;;;10.90;99.90;;;;;;5091506;28;20469;-53
2022/10/13 03:43:37;;;;;;;28.45;15.48;;;10.90;99.90;;;;;;5092229;28;20055;-55
2022/10/13 03:46:04;;;;;;;17.75;10.88;;;10.90;99.90;;;;;;5092192;28;20038;-54
2022/10/13 03:48:32;;;;;;;17.38;9.30;;;10.80;99.90;;;;;;5091406;28;20047;-56
2022/10/13 03:50:57;;;;;;;18.13;9.40;;;10.80;99.90;;;;;;5092088;28;20024;-55
2022/10/13 03:53:24;;;;;;;16.35;8.45;;;10.80;99.90;;;;;;5092412;28;20016;-50
2022/10/13 03:55:51;;;;;;;15.52;9.02;;;10.80;99.90;;;;;;5091660;28;20137;-50
2022/10/13 03:58:17;;;;;;;13.07;7.50;;;10.80;99.90;;;;;;5092601;28;20028;-55
2022/10/13 04:00:44;;;;;;;14.93;8.13;;;10.80;99.90;;;;;;5092070;28;20035;-48
2022/10/13 04:03:09;;;;;;;13.68;7.93;;;10.80;99.90;;;;;;5088583;28;20024;-55
2022/10/13 04:05:35;;;;;;;15.18;8.80;;;10.80;99.90;;;;;;5091457;28;20019;-50
2022/10/13 04:08:01;;;;;;;23.50;13.77;;;10.80;99.90;;;;;;5091151;28;20028;-57
2022/10/13 04:10:26;;;;;;;29.13;17.60;;;10.80;99.90;;;;;;5091771;28;20024;-58
2022/10/13 04:12:52;;;;;;;37.42;20.38;;;10.80;99.90;;;;;;5092030;28;20030;-51
2022/10/13 04:15:17;;;;;;;34.78;19.67;;;10.90;99.90;;;;;;5092089;28;20028;-55
2022/10/13 04:17:43;;;;;;;28.63;17.83;;;10.90;99.90;;;;;;5091067;28;20028;-55
2022/10/13 04:20:09;;;;;;;24.40;15.40;;;10.90;99.90;;;;;;5091903;28;20072;-56
2022/10/13 04:22:34;;;;;;;25.52;14.75;;;11.00;99.90;;;;;;5091835;28;20032;-59
2022/10/13 04:25:00;;;;;;;31.25;17.83;;;11.00;99.90;;;;;;5091068;28;20412;-58
2022/10/13 04:27:26;;;;;;;37.80;20.90;;;11.00;99.90;;;;;;5091858;28;20032;-57
2022/10/13 04:29:52;;;;;;;29.67;18.98;;;11.00;99.90;;;;;;5091400;28;20024;-51
2022/10/13 04:32:17;;;;;;;26.23;16.85;;;11.00;99.90;;;;;;5091137;28;20507;-55
2022/10/13 04:34:43;;;;;;;23.60;13.65;;;11.10;99.90;;;;;;5091252;28;20020;-53
2022/10/13 04:37:09;;;;;;;27.95;17.48;;;11.10;99.90;;;;;;5090958;28;20020;-56
2022/10/13 04:39:35;;;;;;;26.83;17.55;;;11.10;99.90;;;;;;5091643;28;20028;-57
2022/10/13 04:42:01;;;;;;;25.25;17.60;;;11.10;99.90;;;;;;5091499;28;20063;-57
2022/10/13 04:44:26;;;;;;;23.75;15.45;;;11.00;99.90;;;;;;5090962;28;20139;-55
2022/10/13 04:46:52;;;;;;;23.65;14.25;;;11.00;99.90;;;;;;5091148;28;20101;-54
2022/10/13 04:49:17;;;;;;;23.27;14.50;;;11.00;99.90;;;;;;5091242;28;20377;-48
2022/10/13 04:51:43;;;;;;;20.33;12.40;;;11.00;99.90;;;;;;5090648;28;20085;-48
2022/10/13 04:54:09;;;;;;;25.15;14.88;;;11.00;99.90;;;;;;5091266;28;20115;-48
2022/10/13 04:56:35;;;;;;;21.67;12.02;;;11.10;99.90;;;;;;5091390;28;20451;-52
2022/10/13 04:59:04;;;;;;;18.98;10.98;;;11.10;99.90;;;;;;5089574;28;20357;-51
2022/10/13 05:01:31;;;;;;;16.63;9.73;;;11.10;99.90;;;;;;5101237;28;20134;-61
2022/10/13 05:03:59;;;;;;;22.75;11.82;;;11.10;99.90;;;;;;5111926;28;20024;-65
2022/10/13 05:06:28;;;;;;;25.90;13.43;;;11.10;99.90;;;;;;5110155;28;20024;-53
2022/10/13 05:08:55;;;;;;;26.95;15.40;;;11.10;99.90;;;;;;5113151;28;20016;-51
2022/10/13 05:11:21;;;;;;;23.05;13.80;;;11.10;99.90;;;;;;5112705;28;20051;-56
2022/10/13 05:13:47;;;;;;;24.95;12.48;;;11.10;99.90;;;;;;5110977;28;20062;-60
2022/10/13 05:16:15;;;;;;;22.92;13.10;;;11.10;99.90;;;;;;5111497;28;20066;-63
2022/10/13 05:18:41;;;;;;;26.00;15.05;;;11.10;99.90;;;;;;5111176;28;20027;-58
2022/10/13 05:21:27;;;;;;;22.58;14.75;;;11.10;99.90;;;;;;5110770;28;20108;-51
2022/10/13 05:23:54;;;;;;;18.63;10.27;;;11.10;99.90;;;;;;5111381;28;20471;-49
2022/10/13 05:26:22;;;;;;;18.05;9.05;;;11.10;99.90;;;;;;5111548;28;20420;-55
2022/10/13 05:28:48;;;;;;;16.15;9.05;;;11.10;99.90;;;;;;5111233;28;20399;-62
2022/10/13 05:31:19;;;;;;;16.58;8.82;;;11.10;99.90;;;;;;5111734;28;20487;-60
2022/10/13 05:33:46;;;;;;;16.33;7.68;;;11.10;99.90;;;;;;5110974;28;20023;-54
2022/10/13 05:36:20;;;;;;;14.50;7.53;;;11.10;99.90;;;;;;5111741;28;20023;-56
2022/10/13 05:38:50;;;;;;;16.02;7.68;;;11.10;99.90;;;;;;5111134;28;20044;-58
2022/10/13 05:41:16;;;;;;;16.20;7.70;;;11.10;99.90;;;;;;5110750;28;20046;-62
2022/10/13 05:43:42;;;;;;;18.17;11.00;;;11.10;99.90;;;;;;5111324;28;20024;-65
2022/10/13 05:46:08;;;;;;;23.05;12.30;;;11.20;99.90;;;;;;5111576;28;20426;-59
2022/10/13 05:48:34;;;;;;;28.42;17.20;;;11.20;99.90;;;;;;5110697;28;20026;-58
2022/10/13 05:51:03;;;;;;;28.70;17.17;;;11.30;99.90;;;;;;5111623;28;20059;-63
2022/10/13 05:53:33;;;;;;;30.40;18.65;;;11.30;99.90;;;;;;5111859;28;20035;-65
2022/10/13 05:56:05;;;;;;;28.35;17.05;;;11.40;99.90;;;;;;5110800;28;20080;-59
2022/10/13 05:58:38;;;;;;;22.92;13.95;;;11.40;99.90;;;;;;5111444;28;20024;-62
2022/10/13 06:01:10;;;;;;;18.83;11.23;;;11.40;99.90;;;;;;5111373;28;20115;-58
2022/10/13 06:03:37;;;;;;;14.35;9.27;;;11.50;99.90;;;;;;5106492;28;20028;-51
2022/10/13 06:06:03;;;;;;;16.92;9.05;;;11.50;99.90;;;;;;5090749;28;20030;-56
2022/10/13 06:08:29;;;;;;;16.73;9.50;;;11.50;99.90;;;;;;5085407;28;20035;-54
2022/10/13 06:10:54;;;;;;;17.92;10.50;;;11.60;99.90;;;;;;5090908;28;20498;-51
2022/10/13 06:13:20;;;;;;;18.10;9.23;;;11.60;99.90;;;;;;5091890;28;20543;-55
2022/10/13 06:15:46;;;;;;;17.45;10.27;;;11.60;99.90;;;;;;5091537;28;20035;-60
2022/10/13 06:18:11;;;;;;;18.08;10.63;;;11.60;99.90;;;;;;5091984;28;20020;-60
2022/10/13 06:20:37;;;;;;;22.65;10.82;;;11.60;99.90;;;;;;5078750;28;20695;-55
2022/10/13 06:23:03;;;;;;;17.77;10.13;;;11.60;99.90;;;;;;5082936;28;20126;-56
2022/10/13 06:25:29;;;;;;;18.85;11.63;;;11.70;99.90;;;;;;5089248;28;20545;-56
2022/10/13 06:27:59;;;;;;;17.55;10.35;;;11.70;99.90;;;;;;5072471;28;20055;-53
2022/10/13 06:30:25;;;;;;;21.15;9.70;;;11.70;99.90;;;;;;5075456;28;20020;-48
2022/10/13 06:32:55;;;;;;;23.10;11.10;;;11.80;99.90;;;;;;5085712;28;20020;-53
2022/10/13 06:35:23;;;;;;;19.25;8.70;;;11.80;99.90;;;;;;5085414;28;20035;-51
2022/10/13 06:37:49;;;;;;;15.48;8.20;;;11.90;99.90;;;;;;5086710;28;20035;-54
2022/10/13 06:40:15;;;;;;;18.70;8.73;;;11.90;99.90;;;;;;5084033;28;20028;-55
2022/10/13 06:42:41;;;;;;;17.75;8.57;;;11.90;99.90;;;;;;5085999;28;20400;-54
2022/10/13 06:45:07;;;;;;;16.42;8.05;;;12.00;99.90;;;;;;5085813;28;20016;-60
2022/10/13 06:47:33;;;;;;;14.50;7.82;;;12.00;99.90;;;;;;5086750;28;20063;-52
2022/10/13 06:49:58;;;;;;;16.27;8.27;;;12.00;99.90;;;;;;5088582;28;20047;-53
2022/10/13 06:52:24;;;;;;;15.20;7.70;;;12.10;99.90;;;;;;5088351;28;20036;-54
2022/10/13 06:54:50;;;;;;;20.30;9.25;;;12.10;99.90;;;;;;5086638;28;20028;-52
2022/10/13 06:57:15;;;;;;;17.55;8.90;;;12.10;99.90;;;;;;5086522;28;20139;-55
2022/10/13 06:59:43;;;;;;;17.25;9.82;;;12.10;99.90;;;;;;5083964;28;20601;-53
2022/10/13 07:02:08;;;;;;;16.67;9.45;;;12.20;99.90;;;;;;5083867;28;20043;-54
2022/10/13 07:04:34;;;;;;;15.30;8.88;;;12.20;99.90;;;;;;5086758;28;20020;-53
2022/10/13 07:07:00;;;;;;;22.88;10.93;;;12.30;99.90;;;;;;5083742;28;20027;-56
2022/10/13 07:09:26;;;;;;;20.77;12.25;;;12.20;99.90;;;;;;5081623;28;20028;-47
2022/10/13 07:11:51;;;;;;;22.20;11.18;;;12.20;99.90;;;;;;5083666;28;20126;-55
2022/10/13 07:14:17;;;;;;;18.35;9.20;;;12.30;99.90;;;;;;5082487;28;20027;-54
2022/10/13 07:16:42;;;;;;;15.07;8.38;;;12.30;99.90;;;;;;5086443;28;20028;-57
2022/10/13 07:19:08;;;;;;;19.63;10.20;;;12.30;99.90;;;;;;5084163;28;20699;-56
2022/10/13 07:21:34;;;;;;;18.52;8.75;;;12.40;99.90;;;;;;5084151;28;20151;-51
2022/10/13 07:24:02;;;;;;;19.55;9.95;;;12.40;99.90;;;;;;5084730;28;20024;-52
2022/10/13 07:26:27;;;;;;;18.90;10.60;;;12.40;99.90;;;;;;5082645;28;20023;-53
2022/10/13 07:28:53;;;;;;;19.40;10.00;;;12.40;99.90;;;;;;5083523;28;20020;-53
2022/10/13 07:31:19;;;;;;;19.35;9.50;;;12.50;99.90;;;;;;5084842;28;20108;-57
2022/10/13 07:33:47;;;;;;;17.15;8.82;;;12.50;99.90;;;;;;5084013;28;20028;-55
2022/10/13 07:36:13;;;;;;;19.05;9.85;;;12.50;99.90;;;;;;5081635;28;20119;-53
2022/10/13 07:38:39;;;;;;;20.30;10.50;;;12.50;99.90;;;;;;5086539;28;20095;-50
2022/10/13 07:41:09;;;;;;;26.63;15.00;;;12.60;99.90;;;;;;5085398;28;20061;-56
2022/10/13 07:43:34;;;;;;;26.38;16.52;;;12.60;99.90;;;;;;5087041;28;20074;-53
2022/10/13 07:46:05;;;;;;;27.77;17.67;;;12.60;99.90;;;;;;5087027;28;20385;-57
2022/10/13 07:48:31;;;;;;;31.30;18.88;;;12.60;99.90;;;;;;5087719;28;20511;-57
2022/10/13 07:50:57;;;;;;;30.05;18.88;;;12.60;99.90;;;;;;5086036;28;20135;-55
2022/10/13 07:53:23;;;;;;;31.65;18.48;;;12.70;99.90;;;;;;5082734;28;20469;-59
2022/10/13 07:55:49;;;;;;;29.70;16.48;;;12.70;99.90;;;;;;5082137;28;20024;-64
2022/10/13 07:58:15;;;;;;;33.90;18.75;;;12.70;99.90;;;;;;5086261;28;20031;-62
2022/10/13 08:00:40;;;;;;;30.50;19.83;;;12.70;99.90;;;;;;5086748;28;20119;-56
2022/10/13 08:03:06;;;;;;;27.88;18.42;;;12.70;99.90;;;;;;5085768;28;20032;-51
2022/10/13 08:05:32;;;;;;;26.50;15.27;;;12.70;99.90;;;;;;5085494;28;20016;-53
2022/10/13 08:07:57;;;;;;;30.90;16.92;;;12.80;99.90;;;;;;5085535;28;20020;-54
2022/10/13 08:10:23;;;;;;;29.92;17.25;;;12.80;99.90;;;;;;5081723;28;20027;-50
2022/10/13 08:12:49;;;;;;;24.25;13.00;;;12.80;99.90;;;;;;5085902;28;20020;-49
2022/10/13 08:15:15;;;;;;;20.92;11.48;;;12.90;99.90;;;;;;5087045;28;20103;-54
2022/10/13 08:17:40;;;;;;;21.10;11.73;;;12.90;99.90;;;;;;5083283;28;20035;-55
2022/10/13 08:20:06;;;;;;;24.88;12.07;;;13.00;99.90;;;;;;5084542;28;20400;-52
2022/10/13 08:22:33;;;;;;;24.48;13.13;;;13.10;99.90;;;;;;5084654;28;20113;-58
2022/10/13 08:25:02;;;;;;;20.38;11.23;;;13.10;99.90;;;;;;5085959;28;20043;-54
2022/10/13 08:27:30;;;;;;;20.23;10.98;;;13.20;99.90;;;;;;5086978;28;20222;-53
2022/10/13 08:29:55;;;;;;;19.30;10.55;;;13.30;99.90;;;;;;5084462;28;20024;-53
2022/10/13 08:32:21;;;;;;;16.27;9.27;;;13.30;99.90;;;;;;5085340;28;20028;-50
2022/10/13 08:34:48;;;;;;;21.95;10.75;;;13.40;99.90;;;;;;5084631;28;20040;-57
2022/10/13 08:37:15;;;;;;;24.55;11.50;;;13.50;99.90;;;;;;5084408;28;20023;-55
2022/10/13 08:39:41;;;;;;;22.67;10.88;;;13.60;99.90;;;;;;5084931;28;20031;-50
2022/10/13 08:42:18;;;;;;;26.90;14.60;;;13.70;99.90;;;;;;5085202;28;20036;-53
2022/10/13 08:44:50;;;;;;;24.67;14.95;;;13.80;99.90;;;;;;5078153;28;20026;-54
2022/10/13 08:47:30;;;;;;;27.75;16.77;;;13.90;99.90;;;;;;5079670;28;20024;-57
2022/10/13 08:49:59;;;;;;;27.50;15.50;;;14.00;99.90;;;;;;5080363;28;20384;-55
2022/10/13 08:52:27;;;;;;;25.92;14.50;;;14.10;99.90;;;;;;5081282;28;20107;-59
2022/10/13 08:54:54;;;;;;;21.85;12.25;;;14.10;99.90;;;;;;5083673;28;20016;-58
2022/10/13 08:57:20;;;;;;;23.63;13.18;;;14.20;99.90;;;;;;5080882;28;20321;-56
2022/10/13 08:59:47;;;;;;;22.15;13.15;;;14.30;99.90;;;;;;5076243;28;20025;-58
2022/10/13 09:02:44;;;;;;;33.17;16.80;;;14.30;99.90;;;;;;5068580;28;20119;-58
2022/10/13 09:05:17;;;;;;;23.70;13.43;;;14.40;99.90;;;;;;5058642;28;20032;-57
2022/10/13 09:07:44;;;;;;;22.00;13.60;;;14.40;99.90;;;;;;5070105;28;20029;-58
2022/10/13 09:10:10;;;;;;;24.33;11.95;;;14.40;99.90;;;;;;5079264;28;20028;-55
2022/10/13 09:12:37;;;;;;;20.20;11.05;;;14.30;99.90;;;;;;5078327;28;20353;-65
2022/10/13 09:15:08;;;;;;;19.58;10.35;;;14.30;99.90;;;;;;5091272;28;20023;-58
2022/10/13 09:17:36;;;;;;;20.13;10.80;;;14.30;99.90;;;;;;5091014;28;20131;-57
2022/10/13 09:20:05;;;;;;;20.52;10.77;;;14.20;99.90;;;;;;5090409;28;20068;-56
2022/10/13 09:22:36;;;;;;;22.40;12.10;;;14.30;99.90;;;;;;5092591;28;20042;-57
2022/10/13 09:25:08;;;;;;;19.80;11.18;;;14.20;99.90;;;;;;5092442;28;20028;-52
2022/10/13 09:27:53;;;;;;;20.25;10.35;;;14.30;99.90;;;;;;5090894;28;20379;-59
2022/10/13 09:30:37;;;;;;;18.48;10.50;;;14.40;99.90;;;;;;5090700;28;20020;-52
2022/10/13 09:33:08;;;;;;;24.13;10.93;;;14.50;99.90;;;;;;5090162;28;20031;-60
2022/10/13 09:35:59;;;;;;;21.55;10.77;;;14.70;99.90;;;;;;5090310;28;20405;-60
2022/10/13 09:38:25;;;;;;;18.23;10.85;;;14.80;99.90;;;;;;5088710;28;20017;-60
2022/10/13 09:41:02;;;;;;;20.08;11.20;;;15.00;99.90;;;;;;5088165;28;20054;-59
2022/10/13 09:43:32;;;;;;;18.95;10.63;;;15.20;99.90;;;;;;5090499;28;20115;-57
2022/10/13 09:45:59;;;;;;;20.75;10.18;;;15.40;99.90;;;;;;5089272;28;20063;-51
2022/10/13 09:48:28;;;;;;;18.25;10.80;;;15.50;99.90;;;;;;5089977;28;20012;-49
2022/10/13 09:50:56;;;;;;;21.58;11.60;;;15.60;99.90;;;;;;5090390;28;20782;-55
2022/10/13 09:53:33;;;;;;;20.33;12.77;;;15.70;99.90;;;;;;5090623;28;20538;-55
2022/10/13 09:56:18;;;;;;;21.95;11.25;;;15.90;99.90;;;;;;5089264;28;20021;-53
2022/10/13 09:58:56;;;;;;;25.30;11.00;;;16.00;99.90;;;;;;5090633;28;20085;-55
2022/10/13 10:01:33;;;;;;;18.52;10.50;;;16.10;99.90;;;;;;5089542;28;20035;-52
2022/10/13 10:04:05;;;;;;;18.67;10.18;;;16.30;99.90;;;;;;5090214;28;20028;-50
2022/10/13 10:06:30;;;;;;;18.55;10.13;;;16.40;99.90;;;;;;5090109;28;20103;-52
2022/10/13 10:09:14;;;;;;;16.80;9.50;;;16.50;99.70;;;;;;5089882;28;20469;-50
2022/10/13 10:11:43;;;;;;;18.67;9.02;;;16.50;98.80;;;;;;5090490;28;20028;-53
2022/10/13 10:14:22;;;;;;;19.27;10.35;;;16.50;98.90;;;;;;5090057;28;20039;-50
2022/10/13 10:17:11;;;;;;;15.77;8.80;;;16.50;98.70;;;;;;5089592;28;20091;-50
2022/10/13 10:19:58;;;;;;;16.17;8.80;;;16.50;98.70;;;;;;5089890;28;20059;-54
2022/10/13 10:22:41;;;;;;;16.67;8.27;;;16.60;98.60;;;;;;5089544;28;20066;-48
2022/10/13 10:25:26;;;;;;;18.65;8.02;;;16.60;98.50;;;;;;5089633;28;20028;-50
2022/10/13 10:28:22;;;;;;;16.73;9.43;;;16.60;98.50;;;;;;5089868;28;20032;-53
2022/10/13 10:31:04;;;;;;;13.63;8.13;;;16.80;98.40;;;;;;5089522;28;20020;-56
2022/10/13 10:33:53;;;;;;;13.52;7.70;;;16.80;98.20;;;;;;5090197;28;20012;-55
2022/10/13 10:36:26;;;;;;;18.08;8.80;;;16.80;98.20;;;;;;5089287;28;20035;-51
2022/10/13 10:39:18;;;;;;;17.77;8.85;;;16.90;97.50;;;;;;5090204;28;20036;-55
2022/10/13 10:41:54;;;;;;;15.73;8.52;;;16.90;97.50;;;;;;5089659;28;20084;-51
2022/10/13 10:44:30;;;;;;;15.07;8.10;;;16.80;97.50;;;;;;5088719;28;20025;-55
2022/10/13 10:47:02;;;;;;;18.73;8.43;;;16.80;97.30;;;;;;5090000;28;20142;-53
2022/10/13 10:49:29;;;;;;;16.83;8.10;;;16.80;97.30;;;;;;5090051;28;20032;-51
2022/10/13 10:51:56;;;;;;;14.88;7.72;;;16.80;97.20;;;;;;5088978;28;20189;-54
2022/10/13 10:54:39;;;;;;;16.30;7.95;;;16.80;97.10;;;;;;5089841;28;20456;-53
2022/10/13 10:57:16;;;;;;;14.25;7.45;;;16.80;96.80;;;;;;5089923;28;20028;-51
2022/10/13 11:00:24;;;;;;;18.95;8.43;;;16.70;97.10;;;;;;5093729;28;20053;-50
2022/10/13 11:03:02;;;;;;;17.38;8.27;;;16.60;97.20;;;;;;5075464;28;20067;-51
2022/10/13 11:05:56;;;;;;;17.35;8.25;;;16.50;97.10;;;;;;5092720;28;20024;-49
2022/10/13 11:08:29;;;;;;;14.40;8.13;;;16.50;97.30;;;;;;5093197;28;20376;-54
2022/10/13 11:11:32;;;;;;;14.63;8.02;;;16.50;97.30;;;;;;5093421;28;20028;-51
2022/10/13 11:14:05;;;;;;;16.02;8.25;;;16.50;97.40;;;;;;5093049;28;20052;-48
2022/10/13 11:16:54;;;;;;;17.40;8.32;;;16.60;97.40;;;;;;5092918;28;20460;-49
2022/10/13 11:19:34;;;;;;;11.98;6.88;;;16.70;97.40;;;;;;5050054;28;20101;-49
2022/10/13 11:22:00;;;;;;;12.80;7.07;;;16.80;97.20;;;;;;5092649;28;20396;-48
2022/10/13 11:24:40;;;;;;;15.95;7.95;;;16.80;97.10;;;;;;5092605;28;20027;-50
2022/10/13 11:27:15;;;;;;;18.38;9.10;;;16.80;97.10;;;;;;5091870;28;20031;-50
2022/10/13 11:29:56;;;;;;;16.23;8.05;;;16.80;97.20;;;;;;5092451;28;20380;-55
2022/10/13 11:32:24;;;;;;;17.00;10.05;;;16.60;97.30;;;;;;5097461;28;20027;-56
2022/10/13 11:35:04;;;;;;;22.15;12.77;;;16.50;97.70;;;;;;5093654;28;20032;-58
2022/10/13 11:38:14;;;;;;;19.80;10.18;;;16.30;98.30;;;;;;5092916;28;20024;-58
2022/10/13 11:41:23;;;;;;;19.10;10.70;;;16.10;99.00;;;;;;5087809;28;20040;-51
2022/10/13 11:43:57;;;;;;;20.05;10.70;;;15.90;99.50;;;;;;5092544;28;20286;-52
2022/10/13 11:46:34;;;;;;;22.85;12.82;;;15.80;99.90;;;;;;5091803;28;20024;-49
2022/10/13 11:49:15;;;;;;;19.73;11.18;;;15.70;99.90;;;;;;5092019;28;20024;-55
2022/10/13 11:51:58;;;;;;;20.00;10.77;;;15.60;99.90;;;;;;5092573;28;20020;-52
2022/10/13 11:55:01;;;;;;;19.67;10.93;;;15.50;99.90;;;;;;5091754;28;20353;-53
2022/10/13 11:57:28;;;;;;;18.48;10.93;;;15.40;99.90;;;;;;5009765;28;20116;-54
2022/10/13 11:59:55;;;;;;;18.42;11.20;;;15.40;99.90;;;;;;5076954;28;20066;-56
2022/10/13 12:02:25;;;;;;;19.42;10.93;;;15.30;99.90;;;;;;5091225;28;20032;-57
2022/10/13 12:05:15;;;;;;;19.65;12.75;;;15.30;99.90;;;;;;5090720;28;20012;-58
2022/10/13 12:07:41;;;;;;;26.10;15.07;;;15.30;99.90;;;;;;5090866;28;20471;-52
2022/10/13 12:10:23;;;;;;;26.77;17.33;;;15.30;99.90;;;;;;5091915;28;20055;-55
2022/10/13 12:12:50;;;;;;;29.58;17.88;;;15.30;99.90;;;;;;5092208;28;20025;-56
2022/10/13 12:15:42;;;;;;;28.27;15.10;;;15.30;99.90;;;;;;5089950;28;20031;-56
2022/10/13 12:18:27;;;;;;;27.08;15.48;;;15.30;99.90;;;;;;5088247;28;20036;-55
2022/10/13 12:20:57;;;;;;;26.70;15.20;;;15.30;99.90;;;;;;5091261;28;20040;-59
2022/10/13 12:23:24;;;;;;;29.13;15.32;;;15.30;99.90;;;;;;5091153;28;20112;-55
2022/10/13 12:25:56;;;;;;;25.23;13.57;;;15.20;99.90;;;;;;5091534;28;20050;-58
2022/10/13 12:28:24;;;;;;;23.10;13.18;;;15.20;99.90;;;;;;5091105;28;20028;-56
2022/10/13 12:30:56;;;;;;;23.63;11.75;;;15.20;99.90;;;;;;5091682;28;20016;-57
2022/10/13 12:33:37;;;;;;;23.58;12.10;;;15.20;99.90;;;;;;5091540;28;20020;-57
2022/10/13 12:36:13;;;;;;;21.77;12.05;;;15.20;99.90;;;;;;5089493;28;20048;-52
2022/10/13 12:38:50;;;;;;;24.63;11.98;;;15.10;99.90;;;;;;5091442;28;20035;-53
2022/10/13 12:41:38;;;;;;;21.42;11.20;;;15.10;99.90;;;;;;5089708;28;20013;-54
2022/10/13 12:44:04;;;;;;;21.02;12.00;;;15.10;99.90;;;;;;5088358;28;20372;-57
2022/10/13 12:46:44;;;;;;;21.52;12.23;;;15.10;99.90;;;;;;5091439;28;20020;-55
2022/10/13 12:49:16;;;;;;;20.80;12.05;;;15.10;99.90;;;;;;5091259;28;20110;-55